createdAt,value
2018-09-24T00:02:17.535Z,8.78
2018-09-24T00:04:45.380Z,8.72
2018-09-24T00:07:13.205Z,8.83
2018-09-24T00:09:40.979Z,8.70
2018-09-24T00:12:08.812Z,8.57
2018-09-24T00:14:36.561Z,8.51
2018-09-24T00:17:04.408Z,8.66
2018-09-24T00:19:32.251Z,8.57
2018-09-24T00:22:00.049Z,8.58
2018-09-24T00:24:27.929Z,8.59
2018-09-24T00:26:55.789Z,8.51
2018-09-24T00:29:23.587Z,8.60
2018-09-24T00:31:51.322Z,8.49
2018-09-24T00:34:19.196Z,8.45
2018-09-24T00:36:47.000Z,8.48
2018-09-24T00:39:14.839Z,8.50
2018-09-24T00:41:42.597Z,8.46
2018-09-24T00:44:10.422Z,8.49
2018-09-24T00:46:38.238Z,8.42
2018-09-24T00:49:06.083Z,8.37
2018-09-24T00:51:33.933Z,8.48
2018-09-24T00:54:01.840Z,8.51
2018-09-24T00:56:29.753Z,8.46
2018-09-24T00:58:57.548Z,8.36
2018-09-24T01:01:25.314Z,8.36
2018-09-24T01:03:53.144Z,8.33
2018-09-24T01:06:20.961Z,8.24
2018-09-24T01:08:48.775Z,8.23
2018-09-24T01:11:16.604Z,8.13
2018-09-24T01:13:44.388Z,8.16
2018-09-24T01:16:12.220Z,8.07
2018-09-24T01:18:40.000Z,8.10
2018-09-24T01:21:07.837Z,8.16
2018-09-24T01:23:35.791Z,8.18
2018-09-24T01:26:03.779Z,8.05
2018-09-24T01:28:31.631Z,7.94
2018-09-24T01:30:59.423Z,7.91
2018-09-24T01:33:27.267Z,7.96
2018-09-24T01:35:55.016Z,7.89
2018-09-24T01:38:22.848Z,7.90
2018-09-24T01:40:50.680Z,7.80
2018-09-24T01:43:18.488Z,7.81
2018-09-24T01:45:46.368Z,7.78
2018-09-24T01:48:14.187Z,7.79
2018-09-24T01:50:41.972Z,7.63
2018-09-24T01:53:09.807Z,7.66
2018-09-24T01:55:37.629Z,7.56
2018-09-24T01:58:05.379Z,7.57
2018-09-24T02:00:33.175Z,7.59
2018-09-24T02:03:00.968Z,7.53
2018-09-24T02:05:28.754Z,7.56
2018-09-24T02:07:56.572Z,7.52
2018-09-24T02:10:25.505Z,7.50
2018-09-24T02:12:55.171Z,7.48
2018-09-24T02:15:27.671Z,7.43
2018-09-24T02:17:55.562Z,7.51
2018-09-24T02:20:23.360Z,7.47
2018-09-24T02:22:51.243Z,7.54
2018-09-24T02:25:19.060Z,7.42
2018-09-24T02:27:46.801Z,7.33
2018-09-24T02:30:16.581Z,7.47
2018-09-24T02:32:44.368Z,7.50
2018-09-24T02:35:12.419Z,7.46
2018-09-24T02:37:40.197Z,7.42
2018-09-24T02:40:16.355Z,7.41
2018-09-24T02:42:44.367Z,7.39
2018-09-24T02:45:12.796Z,7.42
2018-09-24T02:47:40.564Z,7.41
2018-09-24T02:50:08.420Z,7.35
2018-09-24T02:52:36.278Z,7.35
2018-09-24T02:55:12.585Z,7.32
2018-09-24T02:57:40.666Z,7.32
2018-09-24T03:00:08.601Z,7.35
2018-09-24T03:02:36.663Z,7.38
2018-09-24T03:05:04.540Z,7.31
2018-09-24T03:07:32.283Z,7.33
2018-09-24T03:10:00.143Z,7.31
2018-09-24T03:12:27.944Z,7.25
2018-09-24T03:14:55.772Z,7.24
2018-09-24T03:17:23.599Z,7.20
2018-09-24T03:19:51.355Z,7.24
2018-09-24T03:22:22.417Z,7.20
2018-09-24T03:24:50.683Z,7.21
2018-09-24T03:27:18.816Z,7.16
2018-09-24T03:29:46.563Z,7.20
2018-09-24T03:32:14.416Z,7.16
2018-09-24T03:34:42.204Z,7.10
2018-09-24T03:37:09.969Z,7.06
2018-09-24T03:39:37.767Z,6.94
2018-09-24T03:42:05.710Z,7.03
2018-09-24T03:44:33.488Z,7.03
2018-09-24T03:47:01.355Z,7.01
2018-09-24T03:49:29.216Z,7.03
2018-09-24T03:51:57.018Z,6.97
2018-09-24T03:54:24.804Z,7.02
2018-09-24T03:56:52.843Z,7.00
2018-09-24T03:59:20.672Z,6.96
2018-09-24T04:01:48.502Z,6.91
2018-09-24T04:04:22.152Z,6.82
2018-09-24T04:06:55.703Z,6.90
2018-09-24T04:09:29.318Z,6.77
2018-09-24T04:12:02.808Z,6.79
2018-09-24T04:14:36.367Z,6.76
2018-09-24T04:17:09.879Z,6.74
2018-09-24T04:19:43.289Z,6.77
2018-09-24T04:22:16.927Z,6.74
2018-09-24T04:24:50.544Z,6.71
2018-09-24T04:27:24.140Z,6.63
2018-09-24T04:29:57.775Z,6.60
2018-09-24T04:32:31.371Z,6.62
2018-09-24T04:35:04.961Z,6.62
2018-09-24T04:37:38.655Z,6.67
2018-09-24T04:40:12.217Z,6.73
2018-09-24T04:42:45.762Z,6.77
2018-09-24T04:45:19.329Z,6.69
2018-09-24T04:47:52.751Z,6.65
2018-09-24T04:50:26.374Z,6.61
2018-09-24T04:52:59.992Z,6.69
2018-09-24T04:55:33.466Z,6.72
2018-09-24T04:58:07.059Z,6.80
2018-09-24T05:00:40.660Z,6.76
2018-09-24T05:03:14.826Z,6.81
2018-09-24T05:05:48.417Z,6.80
2018-09-24T05:08:22.161Z,6.79
2018-09-24T05:10:55.596Z,6.82
2018-09-24T05:13:29.071Z,6.88
2018-09-24T05:16:02.756Z,6.90
2018-09-24T05:18:36.197Z,6.84
2018-09-24T05:21:10.096Z,6.80
2018-09-24T05:23:43.564Z,6.90
2018-09-24T05:26:17.063Z,6.95
2018-09-24T05:28:50.754Z,6.84
2018-09-24T05:31:24.444Z,6.92
2018-09-24T05:33:57.881Z,7.10
2018-09-24T05:36:31.284Z,7.04
2018-09-24T05:39:04.923Z,7.02
2018-09-24T05:41:38.652Z,6.99
2018-09-24T05:44:12.199Z,7.03
2018-09-24T05:46:45.798Z,7.09
2018-09-24T05:49:19.312Z,7.15
2018-09-24T05:51:52.846Z,7.15
2018-09-24T05:54:26.392Z,7.27
2018-09-24T05:56:59.928Z,7.34
2018-09-24T05:59:33.577Z,7.35
2018-09-24T06:02:07.172Z,7.39
2018-09-24T06:04:40.821Z,7.43
2018-09-24T06:07:14.502Z,7.47
2018-09-24T06:09:48.064Z,7.60
2018-09-24T06:12:21.465Z,7.53
2018-09-24T06:14:54.914Z,7.67
2018-09-24T06:17:28.408Z,7.64
2018-09-24T06:20:01.780Z,7.62
2018-09-24T06:22:35.227Z,7.73
2018-09-24T06:25:08.804Z,7.70
2018-09-24T06:27:42.363Z,7.70
2018-09-24T06:30:15.928Z,7.76
2018-09-24T06:32:49.473Z,7.78
2018-09-24T06:35:23.037Z,7.82
2018-09-24T06:37:56.520Z,7.86
2018-09-24T06:40:30.383Z,7.93
2018-09-24T06:43:07.691Z,8.07
2018-09-24T06:45:41.248Z,8.05
2018-09-24T06:48:14.885Z,8.10
2018-09-24T06:50:48.373Z,8.20
2018-09-24T06:53:21.848Z,8.29
2018-09-24T06:55:55.527Z,8.32
2018-09-24T06:58:29.100Z,8.38
2018-09-24T07:01:02.719Z,8.50
2018-09-24T07:03:36.288Z,8.54
2018-09-24T07:06:09.789Z,8.57
2018-09-24T07:08:43.512Z,8.63
2018-09-24T07:11:16.897Z,8.76
2018-09-24T07:13:50.251Z,8.83
2018-09-24T07:16:23.755Z,8.87
2018-09-24T07:18:57.271Z,8.92
2018-09-24T07:21:30.813Z,8.95
2018-09-24T07:24:04.165Z,9.07
2018-09-24T07:26:37.696Z,9.09
2018-09-24T07:29:11.392Z,9.23
2018-09-24T07:31:44.863Z,9.33
2018-09-24T07:34:18.543Z,9.36
2018-09-24T07:36:52.183Z,9.55
2018-09-24T07:39:25.839Z,9.54
2018-09-24T07:41:59.431Z,9.57
2018-09-24T07:44:32.971Z,9.65
2018-09-24T07:47:06.500Z,9.73
2018-09-24T07:49:40.071Z,9.79
2018-09-24T07:52:13.577Z,9.81
2018-09-24T07:54:46.980Z,9.93
2018-09-24T07:57:20.519Z,10.02
2018-09-24T07:59:54.112Z,10.12
2018-09-24T08:02:27.704Z,10.18
2018-09-24T08:05:01.280Z,10.30
2018-09-24T08:07:34.894Z,10.38
2018-09-24T08:10:08.395Z,10.41
2018-09-24T08:12:41.971Z,10.52
2018-09-24T08:15:15.415Z,10.63
2018-09-24T08:17:49.039Z,10.73
2018-09-24T08:20:22.536Z,10.89
2018-09-24T08:22:55.891Z,11.06
2018-09-24T08:25:29.287Z,11.15
2018-09-24T08:28:02.853Z,11.28
2018-09-24T08:30:36.279Z,11.54
2018-09-24T08:33:09.779Z,11.68
2018-09-24T08:35:43.400Z,11.93
2018-09-24T08:38:16.906Z,12.25
2018-09-24T08:40:50.136Z,12.28
2018-09-24T08:43:23.624Z,12.44
2018-09-24T08:45:57.351Z,12.48
2018-09-24T08:48:30.735Z,12.49
2018-09-24T08:51:04.372Z,12.50
2018-09-24T08:53:37.904Z,12.62
2018-09-24T08:56:11.332Z,12.61
2018-09-24T08:58:44.932Z,12.67
2018-09-24T09:01:18.380Z,12.61
2018-09-24T09:03:51.948Z,12.60
2018-09-24T09:06:25.457Z,12.63
2018-09-24T09:08:59.090Z,12.66
2018-09-24T09:11:32.749Z,12.72
2018-09-24T09:14:06.339Z,12.80
2018-09-24T09:16:39.816Z,12.87
2018-09-24T09:19:13.348Z,12.89
2018-09-24T09:21:46.836Z,13.10
2018-09-24T09:24:20.288Z,13.13
2018-09-24T09:26:53.705Z,13.13
2018-09-24T09:29:27.093Z,13.13
2018-09-24T09:32:00.525Z,13.23
2018-09-24T09:34:34.055Z,13.34
2018-09-24T09:37:07.588Z,13.45
2018-09-24T09:39:41.048Z,13.58
2018-09-24T09:42:14.763Z,13.62
2018-09-24T09:44:48.455Z,13.72
2018-09-24T09:47:21.932Z,13.77
2018-09-24T09:49:55.531Z,13.70
2018-09-24T09:52:29.184Z,13.79
2018-09-24T09:55:02.784Z,13.82
2018-09-24T09:57:36.248Z,13.78
2018-09-24T10:00:09.740Z,13.98
2018-09-24T10:02:43.785Z,14.16
2018-09-24T10:05:17.200Z,14.20
2018-09-24T10:07:50.784Z,14.28
2018-09-24T10:10:24.364Z,14.33
2018-09-24T10:12:57.960Z,14.43
2018-09-24T10:15:31.456Z,14.49
2018-09-24T10:18:05.092Z,14.50
2018-09-24T10:20:38.380Z,14.53
2018-09-24T10:23:11.908Z,14.65
2018-09-24T10:25:45.460Z,14.71
2018-09-24T10:28:18.971Z,15.02
2018-09-24T10:30:52.492Z,14.90
2018-09-24T10:33:26.068Z,15.19
2018-09-24T10:35:59.711Z,15.35
2018-09-24T10:38:33.292Z,15.43
2018-09-24T10:41:06.855Z,15.84
2018-09-24T10:43:40.251Z,15.90
2018-09-24T10:46:13.676Z,16.15
2018-09-24T10:48:47.179Z,16.55
2018-09-24T10:51:20.871Z,16.79
2018-09-24T10:53:54.419Z,17.39
2018-09-24T10:56:28.089Z,17.35
2018-09-24T10:59:01.659Z,17.99
2018-09-24T11:01:35.280Z,18.31
2018-09-24T11:04:08.656Z,18.96
2018-09-24T11:06:42.083Z,19.53
2018-09-24T11:09:15.680Z,19.73
2018-09-24T11:11:49.135Z,19.96
2018-09-24T11:14:22.606Z,20.14
2018-09-24T11:16:56.323Z,20.84
2018-09-24T11:19:29.722Z,20.51
2018-09-24T11:22:03.319Z,21.33
2018-09-24T11:24:36.665Z,21.26
2018-09-24T11:27:10.016Z,21.30
2018-09-24T11:29:43.595Z,21.05
2018-09-24T11:32:16.947Z,20.40
2018-09-24T11:34:50.583Z,20.28
2018-09-24T11:37:23.994Z,20.20
2018-09-24T11:39:57.609Z,20.41
2018-09-24T11:42:31.151Z,20.70
2018-09-24T11:45:04.471Z,20.96
2018-09-24T11:47:38.215Z,21.20
2018-09-24T11:50:11.903Z,21.41
2018-09-24T11:52:52.372Z,21.60
2018-09-24T11:55:26.047Z,21.59
2018-09-24T11:57:59.695Z,21.66
2018-09-24T12:00:33.299Z,21.46
2018-09-24T12:03:06.852Z,21.18
2018-09-24T12:05:40.472Z,21.14
2018-09-24T12:08:13.962Z,20.90
2018-09-24T12:10:47.400Z,20.76
2018-09-24T12:13:21.001Z,20.57
2018-09-24T12:15:54.701Z,20.48
2018-09-24T12:18:28.340Z,20.44
2018-09-24T12:21:01.852Z,20.14
2018-09-24T12:23:35.243Z,19.75
2018-09-24T12:26:08.795Z,19.50
2018-09-24T12:28:42.287Z,19.57
2018-09-24T12:31:16.352Z,19.74
2018-09-24T12:33:49.833Z,19.50
2018-09-24T12:36:23.304Z,19.74
2018-09-24T12:38:57.011Z,19.77
2018-09-24T12:41:30.514Z,19.73
2018-09-24T12:44:03.986Z,19.76
2018-09-24T12:46:37.576Z,19.63
2018-09-24T12:49:11.145Z,19.71
2018-09-24T12:51:44.540Z,19.74
2018-09-24T12:54:18.011Z,19.60
2018-09-24T12:56:51.659Z,19.27
2018-09-24T12:59:25.188Z,19.02
2018-09-24T13:01:58.799Z,18.80
2018-09-24T13:04:32.331Z,18.79
2018-09-24T13:07:05.886Z,18.72
2018-09-24T13:09:39.455Z,18.58
2018-09-24T13:12:13.088Z,18.35
2018-09-24T13:14:46.712Z,18.27
2018-09-24T13:17:20.298Z,18.36
2018-09-24T13:19:53.864Z,18.07
2018-09-24T13:22:27.384Z,18.09
2018-09-24T13:25:01.080Z,18.07
2018-09-24T13:27:34.696Z,18.07
2018-09-24T13:30:08.328Z,17.79
2018-09-24T13:32:41.893Z,17.63
2018-09-24T13:35:15.517Z,17.41
2018-09-24T13:37:48.976Z,17.30
2018-09-24T13:40:23.735Z,17.39
2018-09-24T13:42:57.316Z,17.43
2018-09-24T13:45:30.963Z,17.30
2018-09-24T13:48:04.521Z,17.32
2018-09-24T13:50:38.138Z,17.26
2018-09-24T13:53:11.839Z,17.29
2018-09-24T13:55:45.420Z,17.12
2018-09-24T13:58:19.033Z,16.88
2018-09-24T14:00:52.584Z,16.90
2018-09-24T14:03:26.033Z,16.99
2018-09-24T14:05:59.507Z,16.99
2018-09-24T14:08:33.064Z,16.84
2018-09-24T14:11:06.604Z,16.61
2018-09-24T14:13:40.271Z,16.71
2018-09-24T14:16:13.873Z,16.71
2018-09-24T14:18:47.396Z,16.81
2018-09-24T14:21:20.990Z,16.87
2018-09-24T14:23:54.584Z,16.84
2018-09-24T14:26:27.948Z,16.86
2018-09-24T14:29:01.482Z,16.82
2018-09-24T14:31:35.101Z,16.89
2018-09-24T14:34:08.708Z,16.82
2018-09-24T14:36:42.263Z,16.80
2018-09-24T14:39:15.789Z,16.77
2018-09-24T14:41:49.393Z,16.85
2018-09-24T14:44:22.893Z,16.83
2018-09-24T14:46:56.465Z,16.89
2018-09-24T14:49:30.063Z,16.80
2018-09-24T14:52:03.467Z,16.89
2018-09-24T14:54:37.390Z,17.04
2018-09-24T14:57:10.988Z,17.10
2018-09-24T14:59:44.677Z,17.25
2018-09-24T15:02:18.296Z,17.36
2018-09-24T15:04:51.848Z,17.29
2018-09-24T15:07:25.335Z,17.18
2018-09-24T15:09:58.868Z,17.21
2018-09-24T15:12:32.374Z,17.00
2018-09-24T15:15:05.911Z,16.94
2018-09-24T15:17:39.449Z,16.94
2018-09-24T15:20:13.136Z,16.87
2018-09-24T15:22:46.826Z,16.80
2018-09-24T15:25:21.175Z,16.80
2018-09-24T15:27:54.675Z,16.70
2018-09-24T15:30:28.495Z,16.67
2018-09-24T15:33:02.047Z,16.61
2018-09-24T15:35:35.668Z,16.59
2018-09-24T15:38:09.272Z,16.61
2018-09-24T15:40:42.878Z,16.60
2018-09-24T15:43:16.463Z,16.60
2018-09-24T15:45:50.003Z,16.59
2018-09-24T15:48:23.655Z,16.56
2018-09-24T15:50:57.283Z,16.32
2018-09-24T15:53:30.896Z,16.19
2018-09-24T15:56:04.529Z,16.26
2018-09-24T15:58:38.095Z,16.30
2018-09-24T16:01:12.740Z,16.31
2018-09-24T16:03:46.376Z,16.26
2018-09-24T16:06:19.840Z,16.25
2018-09-24T16:08:53.244Z,16.26
2018-09-24T16:11:26.761Z,16.21
2018-09-24T16:14:00.338Z,16.16
2018-09-24T16:16:33.998Z,16.08
2018-09-24T16:19:07.709Z,16.10
2018-09-24T16:25:09.217Z,15.99
2018-09-24T16:27:42.841Z,15.98
2018-09-24T16:30:16.309Z,15.89
2018-09-24T16:32:49.864Z,15.80
2018-09-24T16:35:23.412Z,15.73
2018-09-24T16:37:57.028Z,15.71
2018-09-24T16:40:35.520Z,15.71
2018-09-24T16:43:11.225Z,15.74
2018-09-24T17:15:56.852Z,14.70
2018-09-24T17:18:30.424Z,14.47
2018-09-24T17:21:03.922Z,14.42
2018-09-24T17:23:37.436Z,14.28
2018-09-24T17:26:10.913Z,14.14
2018-09-24T17:28:44.495Z,14.09
2018-09-24T17:31:19.745Z,14.01
2018-09-24T17:33:53.156Z,13.87
2018-09-24T17:36:28.128Z,13.76
2018-09-24T17:39:09.064Z,13.54
2018-09-24T17:41:42.703Z,13.53
2018-09-24T17:44:16.309Z,13.45
2018-09-24T17:46:49.912Z,13.35
2018-09-24T17:49:23.395Z,13.06
2018-09-24T17:51:57.102Z,13.12
2018-09-24T17:54:30.687Z,13.04
2018-09-24T17:57:04.068Z,12.90
2018-09-24T17:59:37.613Z,12.85
2018-09-24T18:02:11.232Z,12.83
2018-09-24T18:04:44.766Z,12.77
2018-09-24T18:07:18.446Z,12.92
2018-09-24T18:09:52.164Z,12.79
2018-09-24T18:12:25.668Z,12.76
2018-09-24T18:14:59.345Z,12.75
2018-09-24T18:17:33.043Z,12.83
2018-09-24T18:20:06.567Z,12.75
2018-09-24T18:22:40.091Z,12.70
2018-09-24T18:25:13.559Z,12.64
2018-09-24T18:27:47.134Z,12.54
2018-09-24T18:30:20.693Z,12.55
2018-09-24T18:32:54.234Z,12.50
2018-09-24T18:35:27.814Z,12.44
2018-09-24T18:38:01.480Z,12.65
2018-09-24T18:40:42.358Z,12.44
2018-09-24T18:43:16.015Z,12.36
2018-09-24T18:45:49.460Z,12.24
2018-09-24T18:48:23.344Z,12.33
2018-09-24T18:50:56.836Z,12.19
2018-09-24T18:53:30.324Z,12.13
2018-09-24T18:56:03.830Z,12.07
2018-09-24T18:58:37.336Z,11.93
2018-09-24T19:01:11.073Z,11.90
2018-09-24T19:03:44.638Z,11.84
2018-09-24T19:06:18.471Z,11.65
2018-09-24T19:08:52.125Z,11.56
2018-09-24T19:11:27.958Z,11.62
2018-09-24T19:13:58.999Z,11.39
2018-09-24T19:16:32.538Z,11.49
2018-09-24T19:19:07.901Z,11.33
2018-09-24T19:21:41.495Z,11.39
2018-09-24T19:24:15.197Z,11.24
2018-09-24T19:26:49.305Z,11.08
2018-09-24T19:29:22.856Z,11.00
2018-09-24T19:31:56.445Z,10.86
2018-09-24T19:34:29.983Z,10.77
2018-09-24T19:37:03.809Z,10.77
2018-09-24T19:39:37.436Z,10.78
2018-09-24T19:42:11.297Z,10.56
2018-09-24T19:44:44.755Z,10.61
2018-09-24T19:47:18.331Z,10.55
2018-09-24T19:49:51.817Z,10.45
2018-09-24T19:52:25.467Z,10.47
2018-09-24T19:54:59.080Z,10.47
2018-09-24T19:57:32.688Z,10.25
2018-09-24T20:00:06.220Z,10.25
2018-09-24T20:02:39.828Z,10.26
2018-09-24T20:05:13.315Z,10.11
2018-09-24T20:07:46.853Z,10.17
2018-09-24T20:10:22.921Z,10.18
2018-09-24T20:12:58.050Z,10.08
2018-09-24T20:15:32.276Z,10.09
2018-09-24T20:18:05.979Z,10.08
2018-09-24T20:20:41.543Z,9.89
2018-09-24T20:23:17.658Z,9.91
2018-09-24T20:25:51.562Z,9.90
2018-09-24T20:28:25.192Z,9.76
2018-09-24T20:30:59.223Z,9.63
2018-09-24T20:33:33.055Z,9.50
2018-09-24T20:36:06.680Z,9.54
2018-09-24T20:38:40.464Z,9.48
2018-09-24T20:41:13.912Z,9.43
2018-09-24T20:43:47.410Z,9.37
2018-09-24T20:46:20.871Z,9.45
2018-09-24T20:48:54.472Z,9.50
2018-09-24T20:51:28.124Z,9.43
2018-09-24T20:54:01.752Z,9.53
2018-09-24T20:56:35.246Z,9.51
2018-09-24T20:59:08.836Z,9.51
2018-09-24T21:01:42.364Z,9.49
2018-09-24T21:04:15.927Z,9.48
2018-09-24T21:06:49.439Z,9.55
2018-09-24T21:09:22.911Z,9.59
2018-09-24T21:11:56.465Z,9.47
2018-09-24T21:14:30.024Z,9.55
2018-09-24T21:17:03.605Z,9.53
2018-09-24T21:19:37.163Z,9.51
2018-09-24T21:22:10.720Z,9.55
2018-09-24T21:24:44.392Z,9.48
2018-09-24T21:27:18.071Z,9.48
2018-09-24T21:30:01.270Z,9.44
2018-09-24T21:32:35.103Z,9.42
2018-09-24T21:35:08.703Z,9.47
2018-09-24T21:37:42.632Z,9.43
2018-09-24T21:40:16.075Z,9.38
2018-09-24T21:42:49.720Z,9.37
2018-09-24T21:45:23.292Z,9.28
2018-09-24T21:47:59.568Z,9.30
2018-09-24T21:50:33.161Z,9.26
2018-09-24T21:53:06.776Z,9.24
2018-09-24T21:55:40.228Z,9.29
2018-09-24T21:58:15.793Z,9.33
2018-09-24T22:00:49.846Z,9.26
2018-09-24T22:03:23.414Z,9.22
2018-09-24T22:05:57.006Z,9.26
2018-09-24T22:08:30.428Z,9.25
2018-09-24T22:11:08.569Z,9.18
2018-09-24T22:13:47.998Z,9.14
2018-09-24T22:16:21.508Z,9.09
2018-09-24T22:18:55.315Z,9.06
2018-09-24T22:21:28.884Z,9.09
2018-09-24T22:24:02.484Z,8.99
2018-09-24T22:26:35.877Z,8.97
2018-09-24T22:29:09.436Z,9.00
2018-09-24T22:31:42.844Z,8.98
2018-09-24T22:34:16.521Z,8.88
2018-09-24T22:36:49.940Z,8.91
2018-09-24T22:39:23.492Z,8.93
2018-09-24T22:41:56.959Z,8.92
2018-09-24T22:44:30.524Z,8.80
2018-09-24T22:47:04.005Z,8.85
2018-09-24T22:49:37.459Z,8.80
2018-09-24T22:52:10.995Z,8.78
2018-09-24T22:54:44.545Z,8.70
2018-09-24T22:57:18.063Z,8.72
2018-09-24T22:59:51.756Z,8.62
2018-09-24T23:02:25.467Z,8.64
2018-09-24T23:04:58.917Z,8.60
2018-09-24T23:07:32.413Z,8.51
2018-09-24T23:10:05.864Z,8.49
2018-09-24T23:12:39.427Z,8.40
2018-09-24T23:15:13.144Z,8.35
2018-09-24T23:17:46.748Z,8.35
2018-09-24T23:20:20.295Z,8.23
2018-09-24T23:22:53.876Z,8.38
2018-09-24T23:25:27.392Z,8.24
2018-09-24T23:28:00.759Z,8.15
2018-09-24T23:30:34.112Z,8.04
2018-09-24T23:33:07.717Z,8.06
2018-09-24T23:35:41.257Z,7.92
2018-09-24T23:38:15.884Z,8.03
2018-09-24T23:40:49.409Z,7.89
2018-09-24T23:43:23.032Z,7.87
2018-09-24T23:45:56.661Z,7.84
2018-09-24T23:48:30.152Z,7.79
2018-09-24T23:51:03.768Z,7.77
2018-09-24T23:53:37.419Z,7.65
2018-09-24T23:56:10.804Z,7.69
2018-09-24T23:58:44.311Z,7.81
